Country
Station

 

Weather  for  Kikai Island  -  Japan    Japan

  
27 °C (81 °F)
    
 
 

Current METAR for Kikai Island is :

RJKI 021100Z AUTO 17006KT 140V220 9999 NSC 27/26 Q1010

 

This is a report for Kikai Island - Japan.
 
The report was made 26 minutes ago, at 11:00 UTC .
The wind was blowing at a speed of 3.1 meters per second (6.9 miles per hour) from south (170°), varying between southeast (140°) and southwest (220°).
 
The temperature was 27 °C (81 °F), with a dew-point at 26 °C (79 °F).
The temperature felt like 32 °C (89 °F).
 
The atmospheric pressure was 1010 hPa (29.83 inHg).
The relative humidity was 94.3%.
 
The overall visibility was greater than 10 kilometers (6.2 miles).
 

 
 
 
 

Country :   A   B   C   D   E   F   G   H   I   J   K   L   M   N   O   P   Q   R   S   T   U   V   W   Y   Z

 

Site Info  |  Disclaimer  |  Credits  |  Privacy
Contact us  |  Add to favorites
© 2013-2020 METARs - All rights reserved